Timeline UpdatesTrip UpdatesNews PostsPvt PostsTravel TipsAdmin PostsConv PostsFollowed PostsChat RequestsBlog PostsPNR Posts

Disclaimer
Search
 
 
Sat Jul 26, 2014 06:36:22 ISTHomeTrainsΣChainsAtlasPNRForumGalleryNewsFAQTripsMembersLoginFeedback
No Recent News for this Train
Other Trains in the News **new
Latest...
..
Tue Jul 15, 2014 (10:55AM)
⇐ Return Journey: Train# 18238

18237/Chhattisgarh Express

May 08 2014 (6:20PM)
Change Departure Station:
Change Arrival Station:
Post a Train Travel TipPost a Train Travel Tip **new
Post a Comment/Question/Picture/VideoPost a Comment/Question/Picture/Video
Inaugural Run
Sat Jan 01, 1977
Pantry/Catering
✓ Pantry Car Avbl
✓ Catering Avbl
Food is of Average Quality
Loco/Rake Reversals
NGP/Nagpur Junction (8);
RSA - Rake Sharing
58209
Rake/Coach Composition
LOCO-SLR-GS-GS-S1-S2-S3-S4-S5-S6-S7-S8-S9-S10-PC-S11-S12-B3-B2-B1-A1-HA1-GS-SLR-SP1
Loco
BSP - NGP --- ET WAP4 NGP - NZM --- AJNI...
Read more...
WAP7 NZM - ASR ---- TKD WDP4 Author: Mahesh Gupta Entry# 295353
News    PNR    Forum    Time-Table    Availability    Fare Chart    Map    Arr/Dep History    Trips    Gallery    ΣChains    X/O    Timeline    
Travel Time: 1h 16m    2 halts    Distance: 73 km    Avg Speed: 57 km/hr
Type: Mail/Express
Zone: SECR/South East Central
Departs @ 18:02
Platform# ???
SMTWTFS
Dongargarh/DGG 
Arrives @ 19:18
Platform# ???
SMTWTFS
Gondia Junction/G 

2 halts. 7 intermediate Stations between Dongargarh and Gondia Junction

Show ALL intermediate Stations  Show Old Time-Table

#CodeStation NameX/OArrivesAvgDepartsAvgHaltPFDay#KmSpeedElevZoneAddress
1BSPBilaspur Junction (8)  -14:15-31-209.449271mSECRBilaspur, Chhattisgarh
2BYLBelha  14:34-14:35-1m--1-193.877269mSECRCollege Road, Chhattisgarh
3BYTBhatapara (4)X  14:59-15:00-1m--1-163.271270mSECRBanjari Road, Chhattisgarh
4HNHathbandhX  15:13-15:14-1m--1-147.864283mSECRRaipur, Chhattisgarh
5TLDTilda (3)X  15:24-15:25-1m--1-137.151291mSECRBanjari Rd, Chhattisgarh
6RRaipur Junction (6)XO  16:10-16:20-10m--1-98.980297mSECRRaipur, Chhattisgarh
7BPHBBhilai Power House (3)  16:41-16:42-1m--1-70.919312mSECRBhilai, Chhattisgarh
8DURGDurg Junction (6)X  17:10-17:15-5m11-62.087299mSECRPh: 91-788-2322059, Chhattisgarh
9RJNRaj Nandgaon (3)X  17:36-17:38-2m--1-31.582313mSECRRajnandgaon, Chhattisgarh
10DGG»Dongargarh (2)»  18:01-18:02-1m--10.065353mSECRDongargarh, Chhattisgarh
11SKSSalekasa (2)  18:35-18:36-1m--135.774312mSECRRajnandgaon, Chhattisgarh
12AGNAmgaon (2)  18:48-18:49-1m--150.547317mSECRGondia, Maharashtra
13G•Gondia Junction (7)•  19:18-19:23-5m--173.388316mSECRGondia 441601, Maharashtra
14TROTirora (3)  19:43-19:44-1m--1102.668282mSECRDist Gondiya, Maharashtra
15TMRTumsar Road (3)X  20:02-20:03-1m--1122.967267mSECRBhandara, Maharashtra
16BRDBhandara Road (2)  20:19-20:20-1m--1140.985266mSECRState Highway 252, Maharashtra
17KPKamptee (3)  20:54-20:55-1m--1188.819290mSECRMH 441001, Maharashtra
18NGPNagpur Junction (8)X21:40-22:05-25m31203.183314mCRNagpur 440001, Maharashtra
19KATLKatol (2)X  22:49-22:50-1m--1264.079415mCRKatol, Maharashtra
20NRKRNarkher Junction (3)  23:09-23:10-1m--1289.158411mCRNarkher, Maharashtra
21PARPandhurna (2)  23:29-23:30-1m--1307.548481mCRDistt: Chhindwara, Madhya Pradesh
22MTYMultai (2)X  00:21-00:22-1m--2348.360762mCRMultai, Madhya Pradesh
23AMLAAmla Junction (5)XO  00:45-01:20-35m--2371.153733mCRAmla Distt. Betul, Madhya Pradesh
24BZUBetul (3)  01:46-01:47-1m--2394.050644mCRBetul, Madhya Pradesh
25GDYAGhoradongri (3)XO  02:30-02:31-1m--2429.939410mCRBetul, Madhya Pradesh
26ETItarsi Junction (7)  04:20-04:25-5m--2500.357329mWCRItarsi 461111, Madhya Pradesh
27HBDHoshangabad (2)X  04:44-04:45-1m--2518.449308mWCRHoshangabad, Madhya Pradesh
28ODGObaidulla Ganj  05:31-05:32-1m22556.154450mWCRObaidullaganj Raisen Dist., Madhya Pradesh
29HBJBhopal HabibGanj (5)XO  06:05-06:06-1m42585.716496mWCRHabibGanj, Madhya Pradesh
30BPLBhopal Junction (6)X  06:30-06:35-5m22592.071497mWCRBhopal, Madhya Pradesh
31BHSVidisha (3)X  07:20-07:22-2m12645.584432mWCRVidisha, Madhya Pradesh
32BAQGanj Basoda (4)X  07:50-07:51-1m12684.845416mWCRVidisha, Madhya Pradesh
33MABAMandi Bamora (3)XO  08:29-08:30-1m12713.323413mWCRState Highway 14, Madhya Pradesh
34BINABina Junction (4)X  09:15-09:20-5m22730.656414mWCRJn Pt - KATNI/GUNA/ BPL/JHS, Madhya Pradesh
35DUADhaura (3)XO  09:57-09:58-1m--2765.250407mNCRDhaura Tanda, Madhya Pradesh
36JLNJakhalaun (3)  10:12-10:14-2m--2776.7144394mNCRLalitpur(05176-272220), Uttar Pradesh
37LARLalitpur (3)  10:21-10:22-1m32793.586373mNCRLalitpur, Uttar Pradesh
38TBTTalbahat (4)O  10:50-10:52-2m--2833.451314mNCRKhaniyadhana Station Rd, Madhya Pradesh
39BZYBasai (3)X  11:07-11:08-1m22846.252287mNCR07522289600(Gate ManMob. - 9452701575), Madhya Pradesh
40BABBabina (3)  11:22-11:23-1m22858.333285mNCRBabina, Uttar Pradesh
41JHSJhansi Junction (7)X  12:10-12:18-8m42883.865259mNCRJhansi, Uttar Pradesh
42DAADatia (2)X  12:41-12:42-1m12908.853264mNCRDatia, Madhya Pradesh
43SORSonagir (2)X  12:55-12:56-1m--2920.466211mNCRDatia, Madhya Pradesh
44DBADabra (3)X  13:13-13:14-1m12939.269204mNCRDabra(District-Gwalior), Madhya Pradesh
45GWLGwalior Junction (4)X  13:51-13:56-5m22981.572214mNCRGwalior, Madhya Pradesh
46BAOBanmor  14:12-14:13-1m--21000.855189mNCRGwalior, Madhya Pradesh
47MRAMorena (3)  14:34-14:35-1m221020.173176mNCRMorena, Madhya Pradesh
48DHODholpur Junction (3)X  14:57-14:58-1m121046.951177mNCRDholpur, Rajasthan
49AGCAgra Cantt. (6)XO  16:00-16:08-8m221099.530174mNCRAgra, Uttar Pradesh
50RKMRaja Ki Mandi (4)  16:16-16:17-1m121103.562170mNCRAgra, Uttar Pradesh
51MTJMathura Junction (10)X  17:05-17:10-5m221153.281179mNCRMathura, Uttar Pradesh
52CHJChata (4)X  17:33-17:34-1m221184.451185mNCRChhata, Uttar Pradesh
53KSVKosi Kalan (3)X  17:46-17:47-1m121194.749189mNCRKosi Kalan, Uttar Pradesh
54PWLPalwal (8)  18:39-18:40-1m--21237.167200mNRPalwal, Haryana
55BVHBallabgarh (5)  18:59-19:00-1m--21258.340203mNRFaridabad, Haryana
56FDBFaridabad (4)X  19:12-19:13-1m221266.439206mNRold Faridabad, Haryana
57NZMDelhi Hazrat Nizamuddin (7)O  19:45-20:15-30m121287.225209mNRNizamuddin East/Sarai KaleKhan Bus Terminal, Delhi NCT
58SBBSahibabad Junction (5)XOO  20:53-20:54-1m--21303.229209mNRGhaziabad, Uttar Pradesh
59GZBGhaziabad Junction (6)  21:08-21:10-2m121309.962217mNRGhaziabad, Uttar Pradesh
60MUDMuradnagar (2)X  21:27-21:28-1m--21327.555220mNRGhaziabad, Uttar Pradesh
61MDNRModinagar (2)X  21:39-21:40-1m--21337.758221mNRGhaziabad, Uttar Pradesh
62MTCMeerut City Junction (6)  22:00-22:05-5m321357.143229mNRMeerut, Uttar Pradesh
63MUTMeerut Cantt. (2)  22:11-22:12-1m--21361.467230mNRMeerut, Uttar Pradesh
64KATKhatauli (2)  22:38-22:39-1m221390.567239mNRKhatauli, Uttar Pradesh
65MOZMuzaffarnagar (3)  22:59-23:00-1m221412.769247mNRMuzaffarNagar, Uttar Pradesh
66DBDDeoband (2)  23:21-23:22-1m221436.735258mNRSaharanpur, Uttar Pradesh
67SRESaharanpur Junction (6)X  00:20-00:30-10m431470.962276mNRSaharanpur, Uttar Pradesh
68JUDYamunanagar-Jagadhri (3)X  00:59-01:00-1m331501.138275mNRYamunanagar, Haryana
69JUDWJagadhri Workshop (2)X  01:08-01:09-1m231506.171280mNRRailway Workshop Road, Haryana
70RAABarara (2)  01:27-01:28-1m231527.340279mNRBarara, Haryana
71UMBAmbala Cantt. Junction (7)X  02:05-02:15-10m231552.132278mNRAmbala 133001, Haryana
72UBCAmbala City (3)X  02:29-02:30-1m331559.772273mNRNH-1, Haryana
73RPJRajpura Junction (3)X  02:47-02:48-1m131580.139272mNRNH-1, Punjab
74SIRSirhind Junction (3)XO  03:26-03:28-2m131605.059271mNRSirhind, Punjab
75GVGMandi Gobindgarh (2)  03:38-03:39-1m131614.841268mNRMandi Gobindgarh, Punjab
76KNNKhanna (3)XO  03:51-03:52-1m131622.968269mNRNH 1, Punjab
77LDHLudhiana Junction (7)X  04:30-04:40-10m231665.733246mNRLudhiana 141001, Punjab
78PHRPhillaur Junction (3)XO  05:04-05:05-1m231678.871246mNRPhillaur, Punjab
79PGWPhagwara Junction (3)O  05:24-05:25-1m231701.454245mNRPhagwara, Punjab
80JRCJalandhar Cantt. Junction (3)  05:43-05:45-2m131717.729239mNRNear Rama Mandi, Punjab
81JUCJalandhar City Junction (5)X  05:55-06:00-5m131722.546239mNRJalandhar 144001, Punjab
82KREKartarpur (2)X  06:19-06:20-1m231737.248236mNRKartarpur, Punjab
83BEASBeas Junction (2)  06:47-06:48-1m131758.675238mNRBeas, Punjab
84JNLJandiala (2)X  07:07-07:08-1m131782.519238mNRJandiala, Punjab
85ASRAmritsar Junction (5)  08:10--331801.6-233mNRAmritsar 143002, Punjab
Scroll to Top
Scroll to Bottom